Time;durP1;ratioP1;P1;durP2;ratioP2;P2;SDS_P1;SDS_P2;PMS_P1;PMS_P2;Temp;Humidity;BMP_temperature;BMP_pressure;BME280_temperature;BME280_humidity;BME280_pressure;Samples;Min_cycle;Max_cycle;Signal;HPM_P1;HPM_P2
2023/09/03 00:02:06;;;;;;;6.47;4.50;;;;;;;16.51;100.00;101188.72;4971871;28;20213;-73
2023/09/03 00:04:32;;;;;;;5.13;4.30;;;;;;;16.43;100.00;101192.28;4969686;28;20202;-72
2023/09/03 00:06:59;;;;;;;5.57;4.30;;;;;;;16.35;100.00;101192.22;4969256;28;20257;-72
2023/09/03 00:09:25;;;;;;;6.10;4.27;;;;;;;16.39;100.00;101204.72;4970577;28;20213;-72
2023/09/03 00:11:51;;;;;;;5.27;3.70;;;;;;;16.39;100.00;101206.50;4969454;28;20205;-72
2023/09/03 00:14:18;;;;;;;4.57;3.90;;;;;;;16.27;100.00;101205.56;4971075;28;20208;-72
2023/09/03 00:16:44;;;;;;;3.83;3.43;;;;;;;16.20;100.00;101205.56;4965332;28;20197;-72
2023/09/03 00:19:11;;;;;;;3.70;3.23;;;;;;;16.14;100.00;101213.56;4969183;28;20241;-73
2023/09/03 00:21:37;;;;;;;7.00;4.00;;;;;;;16.11;100.00;101206.41;4970527;28;20205;-72
2023/09/03 00:24:04;;;;;;;6.83;4.30;;;;;;;16.25;100.00;101204.69;4967679;28;20212;-73
2023/09/03 00:26:30;;;;;;;4.83;3.87;;;;;;;16.28;100.00;101212.69;4970080;28;20202;-73
2023/09/03 00:28:57;;;;;;;4.37;3.53;;;;;;;16.14;100.00;101209.09;4969783;28;20689;-72
2023/09/03 00:31:25;;;;;;;6.37;4.10;;;;;;;16.14;100.00;101211.78;4970400;28;20202;-72
2023/09/03 00:33:51;;;;;;;6.80;3.97;;;;;;;16.05;100.00;101206.41;4969464;28;20213;-72
2023/09/03 00:36:18;;;;;;;5.60;3.97;;;;;;;15.96;100.00;101209.91;4967650;28;20681;-73
2023/09/03 00:38:47;;;;;;;6.30;4.03;;;;;;;15.87;100.00;101208.97;4968599;28;20748;-72
2023/09/03 00:41:14;;;;;;;5.00;4.10;;;;;;;15.79;100.00;101203.59;4967574;28;20232;-72
2023/09/03 00:43:40;;;;;;;6.07;4.50;;;;;;;15.72;100.00;101199.09;4982711;28;20197;-72
2023/09/03 00:46:08;;;;;;;5.70;4.33;;;;;;;15.68;100.00;101202.66;4970686;28;20212;-72
2023/09/03 00:48:35;;;;;;;6.07;4.57;;;;;;;15.63;100.00;101201.75;4968875;28;20245;-72
2023/09/03 00:51:06;;;;;;;4.87;3.90;;;;;;;15.59;100.00;101205.25;4984029;28;20308;-73
2023/09/03 00:53:35;;;;;;;7.37;5.30;;;;;;;15.55;100.00;101208.75;4983245;28;20662;-72
2023/09/03 00:56:01;;;;;;;13.43;7.97;;;;;;;15.51;100.00;101215.84;4969080;28;20201;-72
2023/09/03 00:58:27;;;;;;;7.03;4.57;;;;;;;15.53;100.00;101215.84;4970472;28;20225;-72
2023/09/03 01:00:55;;;;;;;5.63;3.97;;;;;;;15.55;100.00;101212.31;4969553;28;20306;-72
2023/09/03 01:03:22;;;;;;;6.67;4.43;;;;;;;15.64;100.00;101201.75;4969510;28;20205;-73
2023/09/03 01:05:49;;;;;;;5.57;4.10;;;;;;;15.69;100.00;101207.09;4968650;28;20201;-72
2023/09/03 01:08:15;;;;;;;5.13;4.00;;;;;;;15.61;100.00;101207.06;4965430;28;21369;-73
2023/09/03 01:11:03;;;;;;;6.77;3.90;;;;;;;15.58;100.00;101209.69;4963383;28;20601;-72
2023/09/03 01:13:38;;;;;;;6.53;4.40;;;;;;;15.55;100.00;101209.63;4983733;28;20210;-72
2023/09/03 01:16:13;;;;;;;5.97;4.30;;;;;;;15.51;100.00;101205.16;4966645;28;20201;-72
2023/09/03 01:18:41;;;;;;;6.03;3.93;;;;;;;15.48;100.00;101206.94;4968818;28;20622;-72
2023/09/03 01:21:30;;;;;;;6.43;4.57;;;;;;;15.56;100.00;101194.50;4963889;28;20251;-72
2023/09/03 01:24:13;;;;;;;8.00;4.40;;;;;;;15.61;100.00;101201.72;4960677;28;20284;-72
2023/09/03 01:26:52;;;;;;;5.40;4.17;;;;;;;15.60;100.00;101207.91;4959506;28;20575;-72
2023/09/03 01:29:20;;;;;;;4.90;3.50;;;;;;;15.51;100.00;101214.94;4960626;28;20229;-72
2023/09/03 01:31:48;;;;;;;6.37;3.80;;;;;;;15.48;100.00;101207.81;4961430;28;20204;-72
2023/09/03 01:34:16;;;;;;;7.33;4.13;;;;;;;15.49;100.00;101201.59;4958955;28;20560;-72
2023/09/03 01:36:43;;;;;;;5.13;3.80;;;;;;;15.45;100.00;101207.81;4957997;28;20228;-72
2023/09/03 01:39:09;;;;;;;4.53;3.70;;;;;;;15.42;100.00;101217.56;4960962;28;20667;-72
2023/09/03 01:41:38;;;;;;;6.10;4.67;;;;;;;15.43;100.00;101222.91;4961901;28;20584;-72
2023/09/03 01:44:08;;;;;;;7.53;3.90;;;;;;;15.44;100.00;101223.81;4960405;28;20207;-72
2023/09/03 01:46:50;;;;;;;5.20;3.67;;;;;;;15.59;100.00;101232.84;4965687;28;20292;-72
2023/09/03 01:49:25;;;;;;;6.37;4.30;;;;;;;15.56;100.00;101239.91;4963984;28;20300;-72
2023/09/03 01:52:03;;;;;;;6.20;3.90;;;;;;;15.42;100.00;101238.94;4969145;28;20212;-72
2023/09/03 01:54:39;;;;;;;6.23;4.30;;;;;;;15.30;100.00;101234.41;4968250;28;20210;-72
2023/09/03 01:57:12;;;;;;;4.50;3.90;;;;;;;15.20;100.00;101240.53;4969527;28;20244;-72
2023/09/03 01:59:43;;;;;;;5.23;4.03;;;;;;;15.16;100.00;101239.59;4968983;28;20225;-72
2023/09/03 02:02:12;;;;;;;5.27;4.20;;;;;;;15.12;100.00;101247.56;4966967;28;20216;-72
2023/09/03 02:04:39;;;;;;;5.93;4.27;;;;;;;15.08;100.00;101253.75;4968768;28;20205;-72
2023/09/03 02:07:05;;;;;;;5.87;4.00;;;;;;;15.18;100.00;101261.84;4966808;28;20202;-72
2023/09/03 02:09:32;;;;;;;5.13;4.40;;;;;;;15.38;100.00;101261.16;4968747;28;20225;-72
2023/09/03 02:11:58;;;;;;;8.03;4.57;;;;;;;15.59;100.00;101272.00;4967657;28;20205;-72
2023/09/03 02:14:26;;;;;;;5.47;4.20;;;;;;;15.63;100.00;101264.03;4968739;28;20213;-72
2023/09/03 02:16:53;;;;;;;6.63;4.30;;;;;;;15.58;100.00;101263.09;4963466;28;20208;-72
2023/09/03 02:19:20;;;;;;;4.90;4.20;;;;;;;15.40;100.00;101256.72;4960879;28;20228;-72
2023/09/03 02:21:48;;;;;;;8.27;4.07;;;;;;;15.27;100.00;101255.72;4960853;28;20201;-72
2023/09/03 02:24:15;;;;;;;8.03;4.23;;;;;;;15.17;100.00;101257.41;4961980;28;20214;-72
2023/09/03 02:26:46;;;;;;;4.87;4.23;;;;;;;15.28;100.00;101265.53;4962294;28;20201;-72
2023/09/03 02:29:13;;;;;;;5.80;4.37;;;;;;;15.32;100.00;101270.88;4962138;28;20227;-72
2023/09/03 02:31:40;;;;;;;7.20;4.43;;;;;;;15.26;100.00;101267.28;4960198;28;20206;-72
2023/09/03 02:34:07;;;;;;;6.60;4.67;;;;;;;15.27;100.00;101271.75;4960462;28;20218;-72
2023/09/03 02:36:35;;;;;;;5.87;4.50;;;;;;;15.31;100.00;101282.44;4960274;28;20224;-72
2023/09/03 02:39:02;;;;;;;10.30;5.47;;;;;;;15.24;100.00;101282.41;4962077;28;20593;-72
2023/09/03 02:41:32;;;;;;;5.07;3.97;;;;;;;15.16;100.00;101281.41;4960803;28;20202;-72
2023/09/03 02:43:59;;;;;;;6.87;4.27;;;;;;;15.10;100.00;101286.69;4961146;28;20205;-72
2023/09/03 02:46:26;;;;;;;5.37;4.03;;;;;;;15.05;100.00;101275.97;4963316;28;20206;-72
2023/09/03 02:48:53;;;;;;;5.03;4.03;;;;;;;15.01;100.00;101271.50;4968310;28;20193;-72
2023/09/03 02:51:20;;;;;;;6.40;4.13;;;;;;;15.02;100.00;101265.28;4967626;28;20297;-72
2023/09/03 02:53:47;;;;;;;5.20;4.13;;;;;;;15.05;100.00;101271.53;4968348;28;20205;-72
2023/09/03 02:56:13;;;;;;;7.03;4.50;;;;;;;15.05;100.00;101279.53;4967934;28;20582;-72
2023/09/03 02:58:41;;;;;;;9.43;4.67;;;;;;;15.06;100.00;101280.44;4967193;28;20212;-72
2023/09/03 03:01:09;;;;;;;4.43;3.93;;;;;;;15.05;100.00;101270.63;4968634;28;20229;-72
2023/09/03 03:03:36;;;;;;;7.33;4.10;;;;;;;15.03;100.00;101272.41;4981006;28;20201;-72
2023/09/03 03:06:02;;;;;;;7.50;4.00;;;;;;;15.02;100.00;101271.50;4967129;28;20238;-72
2023/09/03 03:08:29;;;;;;;7.07;3.90;;;;;;;15.05;100.00;101276.88;4967579;28;20205;-72
2023/09/03 03:11:09;;;;;;;7.07;4.33;;;;;;;15.09;100.00;101275.13;4966832;28;20706;-72
2023/09/03 03:13:37;;;;;;;5.43;3.63;;;;;;;15.07;100.00;101273.31;4967224;28;20217;-72
2023/09/03 03:16:07;;;;;;;9.40;3.97;;;;;;;15.07;100.00;101276.00;4968091;28;20202;-72
2023/09/03 03:18:35;;;;;;;7.20;4.03;;;;;;;15.05;100.00;101274.19;4966440;28;20269;-72
2023/09/03 03:21:10;;;;;;;7.93;3.80;;;;;;;15.04;100.00;101284.84;4960476;28;20312;-72
2023/09/03 03:23:38;;;;;;;4.37;3.70;;;;;;;15.02;100.00;101279.50;4958253;28;20650;-72
2023/09/03 03:26:05;;;;;;;6.30;3.83;;;;;;;15.04;100.00;101291.09;4960020;28;20251;-72
2023/09/03 03:28:33;;;;;;;5.40;3.90;;;;;;;15.12;100.00;101291.16;4960959;28;20685;-72
2023/09/03 03:31:17;;;;;;;4.47;3.50;;;;;;;15.21;100.00;101290.34;4960852;28;20229;-72
2023/09/03 03:33:45;;;;;;;8.23;4.10;;;;;;;15.20;100.00;101294.78;4960898;28;20227;-72
2023/09/03 03:36:14;;;;;;;4.97;3.53;;;;;;;15.15;100.00;101287.63;4960344;28;20213;-72
2023/09/03 03:38:41;;;;;;;4.70;3.40;;;;;;;15.09;100.00;101291.13;4959012;28;21339;-72
2023/09/03 03:41:15;;;;;;;4.57;3.53;;;;;;;15.06;100.00;101293.78;4959756;28;20230;-72
2023/09/03 03:43:44;;;;;;;5.03;3.77;;;;;;;15.02;100.00;101292.84;4960242;28;20232;-72
2023/09/03 03:46:14;;;;;;;6.77;3.90;;;;;;;15.01;100.00;101298.16;4960664;28;20198;-72
2023/09/03 03:48:41;;;;;;;7.67;4.00;;;;;;;15.01;100.00;101298.16;4964134;28;20213;-72
2023/09/03 03:51:07;;;;;;;7.43;4.30;;;;;;;15.03;100.00;101293.75;4970897;28;20225;-72
2023/09/03 03:53:34;;;;;;;4.90;3.40;;;;;;;15.05;100.00;101292.88;4970770;28;20202;-72
2023/09/03 03:56:05;;;;;;;6.80;3.97;;;;;;;15.11;100.00;101289.38;4970272;28;20321;-72
2023/09/03 03:58:34;;;;;;;8.80;3.60;;;;;;;15.24;100.00;101291.28;4970944;28;20240;-72
2023/09/03 04:01:19;;;;;;;7.10;4.53;;;;;;;15.26;100.00;101308.22;4968999;28;20611;-72
2023/09/03 04:03:50;;;;;;;7.47;3.93;;;;;;;15.30;100.00;101304.69;4971536;28;20217;-72
2023/09/03 04:06:17;;;;;;;4.90;3.80;;;;;;;15.26;100.00;101307.31;4968584;28;20198;-72
2023/09/03 04:08:44;;;;;;;5.10;3.60;;;;;;;15.17;100.00;101305.44;4963731;28;20209;-72
2023/09/03 04:11:13;;;;;;;4.77;3.53;;;;;;;15.11;100.00;101321.38;4970569;28;20226;-72
2023/09/03 04:13:40;;;;;;;7.13;3.43;;;;;;;15.07;100.00;101318.69;4971345;28;20645;-72
2023/09/03 04:16:13;;;;;;;4.40;3.60;;;;;;;15.02;100.00;101330.19;4969042;28;20688;-72
2023/09/03 04:18:41;;;;;;;4.93;3.53;;;;;;;14.99;100.00;101327.50;4968199;28;20750;-72
2023/09/03 04:21:07;;;;;;;4.43;3.57;;;;;;;14.98;100.00;101319.47;4963134;28;20226;-72
2023/09/03 04:23:34;;;;;;;4.83;3.63;;;;;;;14.95;100.00;101317.69;4961600;28;20208;-73
2023/09/03 04:26:00;;;;;;;5.03;3.70;;;;;;;14.93;100.00;101311.44;4962531;28;20432;-73
2023/09/03 04:28:27;;;;;;;6.50;3.50;;;;;;;14.89;100.00;101322.97;4962463;28;20206;-73
2023/09/03 04:30:59;;;;;;;4.50;3.20;;;;;;;14.87;100.00;101315.81;4963275;28;20654;-73
2023/09/03 04:33:26;;;;;;;5.07;3.60;;;;;;;14.84;100.00;101318.47;4963377;28;20496;-73
2023/09/03 04:35:58;;;;;;;5.10;3.37;;;;;;;14.84;100.00;101315.78;4963743;28;20209;-73
2023/09/03 04:38:25;;;;;;;4.63;3.33;;;;;;;14.85;100.00;101312.25;4961774;28;20206;-73
2023/09/03 04:40:51;;;;;;;4.23;3.30;;;;;;;14.86;100.00;101314.03;4962772;28;20228;-72
2023/09/03 04:43:18;;;;;;;6.20;3.13;;;;;;;14.85;100.00;101310.47;4962890;28;20489;-72
2023/09/03 04:45:52;;;;;;;5.83;3.50;;;;;;;14.86;100.00;101300.69;4961974;28;20213;-72
2023/09/03 04:48:19;;;;;;;4.83;3.57;;;;;;;14.89;100.00;101314.97;4963492;28;20768;-73
2023/09/03 04:50:47;;;;;;;6.53;3.60;;;;;;;14.97;100.00;101325.69;4960236;28;20320;-73
2023/09/03 04:53:13;;;;;;;5.60;3.27;;;;;;;14.96;100.00;101332.81;4982355;28;20221;-73
2023/09/03 04:55:41;;;;;;;4.60;3.57;;;;;;;15.10;100.00;101332.94;4968320;28;20202;-73
2023/09/03 04:58:07;;;;;;;7.23;3.40;;;;;;;15.12;100.00;101330.28;4968758;28;20209;-72
2023/09/03 05:00:34;;;;;;;4.00;3.53;;;;;;;15.11;100.00;101344.50;4964796;28;20320;-73
2023/09/03 05:03:04;;;;;;;6.80;4.00;;;;;;;15.22;100.00;101343.75;4965262;28;20208;-72
2023/09/03 05:05:38;;;;;;;5.57;3.63;;;;;;;15.27;100.00;101351.81;4964133;28;20220;-73
2023/09/03 05:08:04;;;;;;;4.27;3.47;;;;;;;15.24;100.00;101352.66;4971276;28;20678;-73
2023/09/03 05:10:31;;;;;;;4.87;3.93;;;;;;;15.32;100.00;101356.31;4968019;28;20218;-72
2023/09/03 05:12:57;;;;;;;5.83;4.03;;;;;;;15.43;100.00;101360.84;4984836;28;20212;-72
2023/09/03 05:15:24;;;;;;;8.90;4.43;;;;;;;15.46;100.00;101355.53;4964942;28;21175;-73
2023/09/03 05:17:50;;;;;;;8.20;4.70;;;;;;;15.52;100.00;101352.91;4965349;28;20293;-73
2023/09/03 05:20:16;;;;;;;5.67;3.93;;;;;;;15.57;100.00;101351.16;4964271;28;20312;-73
2023/09/03 05:22:43;;;;;;;10.30;4.47;;;;;;;15.61;100.00;101350.38;4970867;28;20209;-73
2023/09/03 05:25:09;;;;;;;5.77;4.30;;;;;;;15.67;100.00;101347.75;4968039;28;20284;-73
2023/09/03 05:27:36;;;;;;;7.03;4.30;;;;;;;15.71;100.00;101362.91;4968753;28;20205;-73
2023/09/03 05:30:05;;;;;;;5.03;4.07;;;;;;;15.77;100.00;101360.28;4962905;28;20222;-73
2023/09/03 05:32:32;;;;;;;5.40;4.00;;;;;;;15.88;100.00;101363.91;4967499;28;20232;-73
2023/09/03 05:34:58;;;;;;;5.90;4.20;;;;;;;15.93;100.00;101371.97;4969612;28;20206;-73
2023/09/03 05:37:27;;;;;;;7.07;4.30;;;;;;;15.99;100.00;101370.22;4968942;28;20213;-72
2023/09/03 05:39:54;;;;;;;9.33;5.00;;;;;;;16.09;100.00;101384.56;4969582;28;20232;-73
2023/09/03 05:42:21;;;;;;;8.70;5.07;;;;;;;16.18;100.00;101392.63;4966256;28;20217;-73
2023/09/03 05:44:48;;;;;;;10.07;4.80;;;;;;;16.28;100.00;101398.94;4967039;28;20796;-72
2023/09/03 05:47:18;;;;;;;10.10;5.30;;;;;;;16.36;100.00;101396.28;4968288;28;20209;-73
2023/09/03 05:49:45;;;;;;;6.87;4.80;;;;;;;16.44;100.00;101411.53;4968424;28;20237;-73
2023/09/03 05:52:12;;;;;;;8.70;5.40;;;;;;;16.53;100.00;101416.03;4967210;28;20217;-73
2023/09/03 05:54:38;;;;;;;10.47;5.30;;;;;;;16.62;100.00;101421.41;4964863;28;20204;-73
2023/09/03 05:57:05;;;;;;;7.60;5.57;;;;;;;16.66;100.00;101417.91;4964564;28;20636;-73
2023/09/03 05:59:31;;;;;;;9.60;5.60;;;;;;;16.65;100.00;101409.84;4961490;28;20231;-73
2023/09/03 06:01:57;;;;;;;9.40;5.10;;;;;;;16.77;100.00;101420.63;4968380;28;20708;-73
2023/09/03 06:04:24;;;;;;;10.47;5.67;;;;;;;16.88;100.00;101419.81;4968706;28;20296;-73
2023/09/03 06:06:50;;;;;;;9.77;4.80;;;;;;;17.00;100.00;101416.28;4968959;28;20216;-73
2023/09/03 06:09:18;;;;;;;7.50;4.70;;;;;;;17.12;100.00;101416.28;4968732;28;20225;-73
2023/09/03 06:11:47;;;;;;;6.80;4.57;;;;;;;17.21;100.00;101421.69;4964539;28;20256;-73
2023/09/03 06:14:14;;;;;;;10.40;4.43;;;;;;;17.22;100.00;101420.81;4963906;28;20206;-73
2023/09/03 06:16:40;;;;;;;6.10;4.87;;;;;;;17.36;100.00;101427.97;4967760;28;20197;-73
2023/09/03 06:19:06;;;;;;;5.77;4.30;;;;;;;17.42;100.00;101430.66;4980055;28;20238;-73
2023/09/03 06:21:33;;;;;;;6.57;4.70;;;;;;;17.48;100.00;101444.06;4966187;28;20641;-73
2023/09/03 06:23:59;;;;;;;6.53;4.50;;;;;;;17.58;100.00;101451.22;4969037;28;20201;-73
2023/09/03 06:26:25;;;;;;;6.23;4.17;;;;;;;17.67;100.00;101447.72;4965591;28;20221;-73
2023/09/03 06:28:52;;;;;;;5.63;3.93;;;;;;;17.78;100.00;101452.19;4967463;28;20198;-73
2023/09/03 06:31:18;;;;;;;5.53;3.67;;;;;;;17.91;100.00;101444.13;4973706;28;20200;-73
2023/09/03 06:33:45;;;;;;;8.07;4.27;;;;;;;18.03;100.00;101455.78;4967864;28;20253;-73
2023/09/03 06:36:11;;;;;;;4.77;3.70;;;;;;;18.13;100.00;101462.03;4968111;28;20296;-73
2023/09/03 06:38:41;;;;;;;4.47;3.67;;;;;;;18.31;100.00;101467.38;4983610;28;20201;-73
2023/09/03 06:41:08;;;;;;;6.57;4.20;;;;;;;18.52;100.00;101469.13;4967930;28;20229;-73
2023/09/03 06:43:34;;;;;;;6.50;3.92;;;;;;;18.74;100.00;101476.25;4967330;28;20208;-73
2023/09/03 06:46:00;;;;;;;6.97;3.90;;;;;;;18.83;100.00;101480.72;4964283;28;20220;-73
2023/09/03 06:48:27;;;;;;;4.70;3.78;;;;;;;19.17;100.00;101480.59;4968074;28;20209;-73
2023/09/03 06:50:53;;;;;;;5.70;4.05;;;;;;;19.42;100.00;101477.78;4967969;28;20713;-73
2023/09/03 06:53:20;;;;;;;4.60;3.50;;;;;;;19.59;100.00;101490.25;4968213;28;20217;-73
2023/09/03 06:55:46;;;;;;;4.63;3.40;;;;;;;19.73;100.00;101493.75;4966321;28;20201;-73
2023/09/03 06:58:13;;;;;;;5.50;3.47;;;;;;;19.80;100.00;101498.19;4969411;28;20579;-73
2023/09/03 07:00:39;;;;;;;5.97;3.20;;;;;;;20.01;100.00;101492.66;4968430;28;20232;-73
2023/09/03 07:03:05;;;;;;;8.45;3.42;;;;;;;20.24;100.00;101487.09;4967000;28;20252;-73
2023/09/03 07:05:32;;;;;;;5.50;3.80;;;;;;;20.43;100.00;101484.28;4967948;28;20210;-74
2023/09/03 07:07:58;;;;;;;4.80;3.40;;;;;;;20.68;100.00;101488.50;4967631;28;20285;-73
2023/09/03 07:10:25;;;;;;;7.25;4.13;;;;;;;21.13;100.00;101494.25;4968475;28;20312;-73
2023/09/03 07:12:52;;;;;;;8.32;4.05;;;;;;;21.52;100.00;101498.25;4967248;28;20198;-73
2023/09/03 07:15:19;;;;;;;5.55;4.22;;;;;;;21.67;100.00;101506.16;4967981;28;20206;-73
2023/09/03 07:17:45;;;;;;;5.10;3.75;;;;;;;21.51;100.00;101521.63;4968045;28;20206;-73
2023/09/03 07:20:11;;;;;;;5.07;4.07;;;;;;;21.62;100.00;101520.63;4965919;28;20567;-73
2023/09/03 07:22:38;;;;;;;5.53;4.18;;;;;;;21.75;100.00;101517.72;4967938;28;20212;-73
2023/09/03 07:25:05;;;;;;;8.30;4.60;;;;;;;21.81;100.00;101517.63;4971113;28;20670;-73
2023/09/03 07:27:32;;;;;;;6.68;5.05;;;;;;;21.94;100.00;101529.09;4970168;28;20205;-73
2023/09/03 07:29:59;;;;;;;6.68;4.90;;;;;;;22.03;100.00;101525.41;4967981;28;20312;-73
2023/09/03 07:32:25;;;;;;;5.53;4.53;;;;;;;22.13;100.00;101517.16;4985830;28;20209;-73
2023/09/03 07:34:53;;;;;;;6.88;5.13;;;;;;;22.21;100.00;101519.72;4965846;28;20201;-73
2023/09/03 07:37:20;;;;;;;6.05;4.63;;;;;;;22.25;100.00;101526.84;4971719;28;20206;-73
2023/09/03 07:39:46;;;;;;;7.30;5.18;;;;;;;22.35;100.00;101519.50;4969104;28;20320;-73
2023/09/03 07:42:13;;;;;;;6.97;5.13;;;;;;;22.36;100.00;101524.84;4971378;28;20692;-73
2023/09/03 07:44:39;;;;;;;9.85;5.70;;;;;;;22.59;100.00;101526.28;4971673;28;20284;-73
2023/09/03 07:47:06;;;;;;;9.10;5.97;;;;;;;22.81;100.00;101538.50;4969638;28;20680;-73
2023/09/03 07:49:32;;;;;;;8.00;5.57;;;;;;;22.96;100.00;101535.53;4971040;28;20304;-73
2023/09/03 07:51:59;;;;;;;10.65;5.95;;;;;;;23.04;100.00;101547.06;4971910;28;20938;-73
2023/09/03 07:54:25;;;;;;;7.18;5.50;;;;;;;23.13;100.00;101540.56;4970836;28;20197;-73
2023/09/03 07:56:55;;;;;;;9.63;5.28;;;;;;;23.32;100.00;101551.94;4968131;28;20351;-74
2023/09/03 07:59:21;;;;;;;9.07;5.45;;;;;;;23.53;100.00;101546.06;4968570;28;20229;-73
2023/09/03 08:01:47;;;;;;;7.30;5.55;;;;;;;23.82;100.00;101537.34;4970902;28;20777;-74
2023/09/03 08:04:14;;;;;;;7.50;5.10;;;;;;;24.01;100.00;101544.06;4969439;28;20300;-74
2023/09/03 08:06:40;;;;;;;6.82;4.60;;;;;;;24.37;100.00;101549.56;4969024;28;20201;-74
2023/09/03 08:09:08;;;;;;;8.23;5.80;;;;;;;24.46;100.00;101549.34;4968861;28;20221;-74
2023/09/03 08:11:36;;;;;;;7.18;5.00;;;;;;;24.78;100.00;101547.59;4970021;28;20204;-74
2023/09/03 08:14:05;;;;;;;7.22;5.30;;;;;;;25.05;100.00;101543.28;4971467;28;20671;-74
2023/09/03 08:16:31;;;;;;;7.32;5.20;;;;;;;25.09;100.00;101550.41;4967964;28;20209;-74
2023/09/03 08:18:58;;;;;;;7.15;5.45;;;;;;;24.94;100.00;101547.16;4969175;28;20197;-74
2023/09/03 08:21:24;;;;;;;9.25;6.00;;;;;;;24.95;100.00;101562.50;4964130;28;20221;-74
2023/09/03 08:23:50;;;;;;;7.50;5.72;;;;;;;24.82;100.00;101552.94;4963048;28;20197;-74
2023/09/03 08:26:17;;;;;;;7.80;6.10;;;;;;;24.98;100.00;101561.56;4962137;28;20201;-74
2023/09/03 08:28:43;;;;;;;8.30;6.30;;;;;;;25.03;100.00;101565.03;4962331;28;20202;-74
2023/09/03 08:31:10;;;;;;;9.45;6.80;;;;;;;24.92;100.00;101570.72;4969750;28;20276;-74
2023/09/03 08:33:37;;;;;;;8.57;6.65;;;;;;;24.91;100.00;101568.94;4964395;28;20202;-73
2023/09/03 08:36:04;;;;;;;9.25;6.82;;;;;;;25.03;100.00;101574.97;4966182;28;20209;-74
2023/09/03 08:38:30;;;;;;;8.70;6.47;;;;;;;25.01;100.00;101566.00;4960456;28;20213;-73
2023/09/03 08:40:57;;;;;;;9.43;6.80;;;;;;;25.02;100.00;101571.38;4957404;28;20226;-74
2023/09/03 08:43:27;;;;;;;7.97;6.50;;;;;;;25.23;100.00;101576.22;4967166;28;20234;-73
2023/09/03 08:45:59;;;;;;;9.10;6.95;;;;;;;25.15;100.00;101580.94;4967669;28;20217;-74
2023/09/03 08:48:26;;;;;;;9.73;7.75;;;;;;;25.07;100.00;101573.97;4983741;28;20426;-75
2023/09/03 08:50:52;;;;;;;9.82;7.22;;;;;;;25.18;100.00;101566.41;4948032;28;20336;-75
2023/09/03 08:53:22;;;;;;;10.02;7.35;;;;;;;25.04;100.00;101572.22;4965956;28;20201;-75
2023/09/03 08:55:49;;;;;;;10.35;7.07;;;;;;;25.07;100.00;101579.38;4982261;28;20206;-76
2023/09/03 08:58:15;;;;;;;12.00;6.97;;;;;;;25.00;100.00;101575.94;4967915;28;20216;-75
2023/09/03 09:00:42;;;;;;;9.35;7.05;;;;;;;24.71;100.00;101582.09;4968752;28;20229;-75
2023/09/03 09:03:11;;;;;;;8.98;7.07;;;;;;;24.42;100.00;101576.56;4962114;28;20214;-72
2023/09/03 09:05:40;;;;;;;10.63;7.63;;;;;;;24.13;100.00;101577.22;4968380;28;20240;-73
2023/09/03 09:08:07;;;;;;;11.27;7.45;;;;;;;23.93;100.00;101565.03;4962201;28;20343;-72
2023/09/03 09:10:37;;;;;;;10.48;7.63;;;;;;;23.73;100.00;101568.19;4968935;28;20217;-73
2023/09/03 09:13:06;;;;;;;9.35;7.53;;;;;;;23.80;100.00;101576.16;4968374;28;20304;-73
2023/09/03 09:15:37;;;;;;;11.38;7.75;;;;;;;23.78;100.00;101567.19;4959589;28;20284;-72
2023/09/03 09:18:08;;;;;;;10.20;7.32;;;;;;;23.95;100.00;101579.41;4963054;28;20203;-73
2023/09/03 09:20:39;;;;;;;10.65;7.22;;;;;;;24.06;100.00;101576.47;4966439;28;20757;-72
2023/09/03 09:23:09;;;;;;;9.18;6.93;;;;;;;24.23;100.00;101571.53;4963847;28;20598;-72
2023/09/03 09:25:36;;;;;;;8.77;6.90;;;;;;;24.44;100.00;101577.41;4962955;28;20213;-72
2023/09/03 09:28:10;;;;;;;10.63;7.57;;;;;;;24.44;100.00;101575.59;4966001;28;20670;-72
2023/09/03 09:30:36;;;;;;;9.77;6.88;;;;;;;24.79;100.00;101581.91;4964227;28;20310;-72
2023/09/03 09:33:05;;;;;;;7.93;6.75;;;;;;;24.92;100.00;101586.09;4966787;28;20241;-73
2023/09/03 09:35:32;;;;;;;7.93;6.80;;;;;;;25.09;100.00;101578.41;4966184;28;20212;-73
2023/09/03 09:38:09;;;;;;;9.10;6.47;;;;;;;25.26;100.00;101581.56;4967781;28;20228;-73
2023/09/03 09:40:36;;;;;;;7.43;6.22;;;;;;;25.20;100.00;101580.81;4965964;28;20228;-73
2023/09/03 09:43:06;;;;;;;7.78;6.30;;;;;;;25.18;100.00;101570.00;4964419;28;20305;-73
2023/09/03 09:45:43;;;;;;;8.88;5.88;;;;;;;25.13;96.20;101574.66;4964179;28;20233;-73
2023/09/03 09:48:10;;;;;;;6.43;4.95;;;;;;;25.07;89.88;101579.38;4966349;28;20205;-73
2023/09/03 09:50:39;;;;;;;6.75;5.20;;;;;;;24.95;83.08;101581.47;4965557;28;20225;-73
2023/09/03 09:53:19;;;;;;;7.35;5.90;;;;;;;24.98;84.44;101575.09;4964540;28;20209;-72
2023/09/03 09:55:46;;;;;;;7.47;5.53;;;;;;;25.06;81.78;101572.19;4959893;28;20209;-72
2023/09/03 09:58:12;;;;;;;8.13;5.95;;;;;;;24.79;79.58;101573.75;4967324;28;20197;-72
2023/09/03 10:00:43;;;;;;;6.82;5.10;;;;;;;25.11;78.92;101579.25;4967210;28;20225;-73
2023/09/03 10:03:15;;;;;;;7.53;5.65;;;;;;;25.28;73.60;101576.97;4956345;28;20308;-72
2023/09/03 10:05:49;;;;;;;6.93;5.13;;;;;;;25.42;72.14;101575.66;4959125;28;20205;-72
2023/09/03 10:08:16;;;;;;;7.72;5.20;;;;;;;25.64;71.33;101575.94;4960878;28;20214;-72
2023/09/03 10:10:43;;;;;;;6.15;5.13;;;;;;;25.98;68.49;101573.97;4966907;28;20229;-72
2023/09/03 10:13:10;;;;;;;7.03;5.13;;;;;;;26.08;67.64;101564.63;4968152;28;20288;-72
2023/09/03 10:15:38;;;;;;;5.60;4.95;;;;;;;25.94;67.90;101569.59;4965257;28;20209;-72
2023/09/03 10:18:07;;;;;;;5.55;4.85;;;;;;;26.05;66.50;101567.44;4968272;28;20206;-72
2023/09/03 10:20:34;;;;;;;5.38;4.70;;;;;;;26.38;66.38;101570.91;4961937;28;20261;-73
2023/09/03 10:23:03;;;;;;;5.05;4.55;;;;;;;26.67;65.35;101578.06;4966595;28;21828;-73
2023/09/03 10:25:33;;;;;;;5.57;4.70;;;;;;;26.82;63.36;101583.00;4967111;28;20288;-73
2023/09/03 10:28:05;;;;;;;8.25;4.55;;;;;;;26.82;61.57;101572.13;4965446;28;20393;-73
2023/09/03 10:30:39;;;;;;;5.95;4.60;;;;;;;26.42;63.61;101578.03;4963734;28;20229;-75
2023/09/03 10:33:09;;;;;;;7.45;4.60;;;;;;;26.59;62.99;101580.16;4968458;28;20207;-72
2023/09/03 10:35:35;;;;;;;5.10;4.60;;;;;;;26.87;63.06;101584.66;4978496;28;20202;-73
2023/09/03 10:38:02;;;;;;;5.43;4.82;;;;;;;26.79;62.55;101583.06;4966393;28;20252;-73
2023/09/03 10:40:29;;;;;;;5.07;4.50;;;;;;;27.01;63.35;101579.66;4967583;28;20222;-73
2023/09/03 10:43:22;;;;;;;6.10;5.03;;;;;;;27.26;64.25;101576.94;4982050;28;20221;-74
2023/09/03 10:46:05;;;;;;;5.57;4.70;;;;;;;27.14;63.39;101575.53;4965408;28;20205;-74
2023/09/03 10:48:34;;;;;;;4.95;4.45;;;;;;;26.74;65.16;101576.03;4965104;28;20716;-74
2023/09/03 10:51:01;;;;;;;6.35;4.80;;;;;;;26.32;65.55;101575.63;4962223;28;20304;-74
2023/09/03 10:53:35;;;;;;;5.50;4.68;;;;;;;26.05;64.29;101574.69;4965753;28;20288;-74
2023/09/03 10:56:12;;;;;;;5.15;4.65;;;;;;;26.11;65.82;101583.53;4967277;28;20281;-74
2023/09/03 10:58:58;;;;;;;4.85;4.20;;;;;;;26.18;65.84;101579.69;4967732;28;20208;-74
2023/09/03 11:01:32;;;;;;;4.70;4.20;;;;;;;26.24;63.70;101579.47;4969438;28;20217;-74
2023/09/03 11:04:01;;;;;;;5.55;4.15;;;;;;;26.55;62.94;101567.63;4968094;28;20300;-73
2023/09/03 11:06:31;;;;;;;4.63;4.13;;;;;;;26.71;61.76;101573.41;4969387;28;20206;-74
2023/09/03 11:09:04;;;;;;;5.45;4.50;;;;;;;26.71;62.72;101570.69;4987671;28;20232;-74
2023/09/03 11:11:35;;;;;;;4.40;4.00;;;;;;;26.74;62.12;101570.59;4969833;28;20256;-74
2023/09/03 11:14:02;;;;;;;5.40;4.20;;;;;;;26.91;62.26;101572.72;4967587;28;20229;-74
2023/09/03 11:16:30;;;;;;;5.03;4.40;;;;;;;26.92;62.73;101575.41;4964964;28;20209;-74
2023/09/03 11:18:58;;;;;;;4.90;4.10;;;;;;;26.81;60.03;101577.59;4967057;28;20297;-74
2023/09/03 11:21:26;;;;;;;5.53;3.80;;;;;;;26.76;59.29;101572.31;4969930;28;20237;-74
2023/09/03 11:24:04;;;;;;;3.85;3.45;;;;;;;26.50;58.61;101565.06;4970153;28;20201;-74